Time;durP1;ratioP1;P1;durP2;ratioP2;P2;SDS_P1;SDS_P2;PMS_P1;PMS_P2;Temp;Humidity;BMP_temperature;BMP_pressure;BME280_temperature;BME280_humidity;BME280_pressure;Samples;Min_cycle;Max_cycle;Signal;HPM_P1;HPM_P2
2022/04/05 00:01:49;;;;;;;10.18;3.08;;;6.70;99.90;;;;;;4961618;29;20127;-52
2022/04/05 00:04:15;;;;;;;9.45;1.83;;;6.60;99.90;;;;;;4959032;29;20043;-49
2022/04/05 00:06:41;;;;;;;10.75;1.98;;;6.60;99.90;;;;;;4960130;29;20050;-49
2022/04/05 00:09:07;;;;;;;11.52;2.17;;;6.70;99.90;;;;;;4960961;28;20050;-51
2022/04/05 00:11:32;;;;;;;9.40;2.25;;;6.70;99.90;;;;;;4960526;28;20047;-52
2022/04/05 00:13:58;;;;;;;12.35;2.90;;;6.70;99.90;;;;;;4961283;29;20130;-52
2022/04/05 00:16:24;;;;;;;13.32;2.00;;;6.80;99.90;;;;;;4959996;29;20051;-52
2022/04/05 00:18:49;;;;;;;15.00;2.38;;;6.60;99.90;;;;;;4961336;29;20047;-52
2022/04/05 00:21:15;;;;;;;12.55;2.70;;;6.60;99.90;;;;;;4960186;29;20058;-52
2022/04/05 00:23:41;;;;;;;12.00;2.10;;;6.60;99.90;;;;;;4961067;29;20053;-53
2022/04/05 00:26:06;;;;;;;8.00;1.63;;;6.70;99.90;;;;;;4960491;29;20066;-51
2022/04/05 00:28:32;;;;;;;15.63;1.85;;;6.50;99.90;;;;;;4960495;28;20094;-50
2022/04/05 00:30:58;;;;;;;13.38;1.92;;;6.70;99.90;;;;;;4961232;29;20042;-54
2022/04/05 00:33:23;;;;;;;12.13;2.00;;;6.60;99.90;;;;;;4960098;29;20597;-51
2022/04/05 00:35:49;;;;;;;11.57;2.13;;;6.50;99.90;;;;;;4961269;29;20062;-53
2022/04/05 00:38:15;;;;;;;13.88;2.17;;;6.50;99.90;;;;;;4959936;29;20053;-51
2022/04/05 00:40:41;;;;;;;11.10;1.70;;;6.50;99.90;;;;;;4961125;29;20058;-52
2022/04/05 00:43:07;;;;;;;15.98;2.20;;;6.60;99.90;;;;;;4958965;28;20518;-50
2022/04/05 00:45:35;;;;;;;11.80;1.80;;;6.50;99.90;;;;;;4960094;29;20055;-50
2022/04/05 00:48:03;;;;;;;9.13;1.50;;;6.50;99.90;;;;;;4960499;29;20122;-52
2022/04/05 00:50:34;;;;;;;14.38;2.28;;;6.50;99.90;;;;;;4959675;28;20035;-52
2022/04/05 00:53:02;;;;;;;14.40;2.83;;;6.50;99.90;;;;;;4961201;28;20043;-50
2022/04/05 00:55:28;;;;;;;9.63;2.72;;;6.50;99.90;;;;;;4959678;28;20480;-51
2022/04/05 00:57:57;;;;;;;12.13;2.20;;;6.50;99.90;;;;;;4960888;29;20118;-49
2022/04/05 01:00:23;;;;;;;11.77;2.58;;;6.50;99.90;;;;;;4960070;28;20586;-52
2022/04/05 01:02:50;;;;;;;17.02;3.13;;;6.50;99.90;;;;;;4959860;28;20055;-53
2022/04/05 01:05:17;;;;;;;9.95;2.30;;;6.60;99.90;;;;;;4960766;28;20087;-49
2022/04/05 01:07:45;;;;;;;11.75;2.70;;;6.50;99.90;;;;;;4959598;28;20047;-51
2022/04/05 01:10:11;;;;;;;13.15;2.67;;;6.50;99.90;;;;;;4960864;28;20632;-51
2022/04/05 01:12:37;;;;;;;11.02;1.75;;;6.60;99.90;;;;;;4959400;28;20074;-52
2022/04/05 01:15:04;;;;;;;11.93;2.13;;;6.50;99.90;;;;;;4960737;28;20039;-52
2022/04/05 01:17:30;;;;;;;17.77;2.33;;;6.60;99.90;;;;;;4958408;29;20051;-53
2022/04/05 01:19:56;;;;;;;13.75;2.50;;;6.60;99.90;;;;;;4960072;28;20053;-51
2022/04/05 01:22:22;;;;;;;10.90;2.42;;;6.60;99.90;;;;;;4960422;29;20137;-51
2022/04/05 01:24:47;;;;;;;15.57;2.70;;;6.50;99.90;;;;;;4959413;29;20048;-51
2022/04/05 01:27:18;;;;;;;11.85;2.90;;;6.60;99.90;;;;;;4960717;28;20058;-49
2022/04/05 01:29:44;;;;;;;10.88;1.92;;;6.60;99.90;;;;;;4959369;28;20050;-50
2022/04/05 01:32:10;;;;;;;14.45;2.10;;;6.50;99.90;;;;;;4960817;28;20122;-53
2022/04/05 01:34:38;;;;;;;11.25;2.00;;;6.60;99.90;;;;;;4959726;28;20518;-54
2022/04/05 01:37:06;;;;;;;22.98;5.82;;;6.40;99.90;;;;;;4958319;28;20514;-54
2022/04/05 01:39:33;;;;;;;14.40;2.97;;;6.50;99.90;;;;;;4960373;28;20055;-55
2022/04/05 01:42:10;;;;;;;16.13;2.42;;;6.50;99.90;;;;;;4959068;28;20876;-53
2022/04/05 01:44:37;;;;;;;16.13;3.55;;;6.40;99.90;;;;;;4960462;28;20055;-54
2022/04/05 01:47:04;;;;;;;15.70;2.05;;;6.40;99.90;;;;;;4958926;28;20043;-54
2022/04/05 01:49:30;;;;;;;12.63;1.73;;;6.40;99.90;;;;;;4959988;28;20046;-52
2022/04/05 01:51:56;;;;;;;13.95;2.50;;;6.30;99.90;;;;;;4959634;29;20138;-53
2022/04/05 01:54:21;;;;;;;19.40;2.17;;;6.40;99.90;;;;;;4960097;28;20456;-53
2022/04/05 01:56:50;;;;;;;19.02;3.80;;;6.40;99.90;;;;;;4963777;28;20035;-53
2022/04/05 01:59:31;;;;;;;16.30;2.30;;;6.30;99.90;;;;;;4962700;28;20047;-52
2022/04/05 02:01:57;;;;;;;20.90;2.30;;;6.30;99.90;;;;;;4962474;29;20047;-52
2022/04/05 02:04:23;;;;;;;15.60;2.47;;;6.30;99.90;;;;;;4962838;28;20110;-49
2022/04/05 02:06:49;;;;;;;21.58;2.47;;;6.30;99.90;;;;;;4963500;28;20044;-54
2022/04/05 02:09:16;;;;;;;15.52;2.17;;;6.40;99.90;;;;;;4963501;28;20055;-53
2022/04/05 02:11:46;;;;;;;15.75;2.28;;;6.30;99.90;;;;;;4962739;28;20043;-52
2022/04/05 02:14:12;;;;;;;16.08;2.70;;;6.30;99.90;;;;;;4963663;28;20099;-52
2022/04/05 02:16:38;;;;;;;14.55;2.28;;;6.40;99.90;;;;;;4962476;28;20055;-53
2022/04/05 02:19:04;;;;;;;21.42;2.72;;;6.40;99.90;;;;;;4963850;28;20039;-53
2022/04/05 02:21:30;;;;;;;20.73;3.40;;;6.40;99.90;;;;;;4962503;29;20043;-52
2022/04/05 02:23:56;;;;;;;18.92;3.03;;;6.30;99.90;;;;;;4962672;28;20051;-52
2022/04/05 02:26:21;;;;;;;20.55;4.03;;;6.30;99.90;;;;;;4962918;29;20107;-52
2022/04/05 02:28:48;;;;;;;13.05;2.28;;;6.30;99.90;;;;;;4962297;28;20051;-50
2022/04/05 02:31:15;;;;;;;18.63;3.35;;;6.40;99.90;;;;;;4963546;28;20051;-50
2022/04/05 02:33:41;;;;;;;14.70;2.60;;;6.30;99.90;;;;;;4962091;28;20039;-53
2022/04/05 02:36:07;;;;;;;25.85;5.55;;;6.30;99.90;;;;;;4963558;29;20525;-52
2022/04/05 02:38:33;;;;;;;16.73;3.13;;;6.30;99.90;;;;;;4962029;28;20083;-52
2022/04/05 02:40:59;;;;;;;19.52;2.72;;;6.30;99.90;;;;;;4962969;29;20062;-51
2022/04/05 02:43:25;;;;;;;15.18;2.78;;;6.30;99.90;;;;;;4962598;28;20043;-52
2022/04/05 02:45:55;;;;;;;17.08;3.47;;;6.30;99.90;;;;;;4961707;28;20055;-50
2022/04/05 02:48:22;;;;;;;16.27;2.78;;;6.30;99.90;;;;;;4962890;29;20086;-50
2022/04/05 02:50:48;;;;;;;19.10;3.03;;;6.30;99.90;;;;;;4961784;28;20462;-51
2022/04/05 02:53:14;;;;;;;18.55;2.70;;;6.30;99.90;;;;;;4962940;28;20130;-50
2022/04/05 02:55:40;;;;;;;18.77;3.05;;;6.20;99.90;;;;;;4961775;29;20388;-48
2022/04/05 02:58:05;;;;;;;12.45;2.17;;;6.30;99.90;;;;;;4962522;28;20043;-49
2022/04/05 03:00:32;;;;;;;15.50;2.58;;;6.20;99.90;;;;;;4962341;28;20043;-51
2022/04/05 03:02:57;;;;;;;16.58;2.65;;;6.20;99.90;;;;;;4961796;29;20051;-53
2022/04/05 03:05:24;;;;;;;14.07;2.72;;;6.10;99.90;;;;;;4962302;28;20078;-52
2022/04/05 03:07:50;;;;;;;15.93;2.42;;;6.20;99.90;;;;;;4960775;28;20051;-51
2022/04/05 03:10:15;;;;;;;17.48;2.85;;;6.10;99.90;;;;;;4962906;29;20043;-51
2022/04/05 03:12:42;;;;;;;18.10;2.58;;;6.20;99.90;;;;;;4961226;28;20262;-51
2022/04/05 03:15:09;;;;;;;18.50;3.10;;;6.10;99.90;;;;;;4962596;28;20051;-49
2022/04/05 03:17:35;;;;;;;14.45;2.28;;;6.20;99.90;;;;;;4961717;28;20173;-51
2022/04/05 03:20:03;;;;;;;10.77;2.40;;;6.20;99.90;;;;;;4961632;28;20047;-51
2022/04/05 03:22:29;;;;;;;12.18;2.78;;;6.20;99.90;;;;;;4962354;28;20062;-52
2022/04/05 03:24:55;;;;;;;18.60;2.63;;;6.10;99.90;;;;;;4961136;28;20043;-52
2022/04/05 03:27:21;;;;;;;14.77;2.55;;;6.10;99.90;;;;;;4961085;29;20054;-51
2022/04/05 03:29:46;;;;;;;20.67;2.75;;;6.10;99.90;;;;;;4961455;29;20043;-49
2022/04/05 03:32:12;;;;;;;19.42;3.28;;;6.10;99.90;;;;;;4962324;29;20399;-52
2022/04/05 03:34:38;;;;;;;18.75;3.05;;;6.10;99.90;;;;;;4961278;28;20056;-52
2022/04/05 03:37:05;;;;;;;19.13;3.05;;;6.00;99.90;;;;;;4960077;29;20110;-50
2022/04/05 03:39:31;;;;;;;17.70;3.42;;;6.20;99.90;;;;;;4961791;28;20049;-53
2022/04/05 03:41:57;;;;;;;14.43;3.08;;;6.20;99.90;;;;;;4960664;28;20070;-53
2022/04/05 03:44:24;;;;;;;14.65;2.72;;;6.10;99.90;;;;;;4961946;29;20058;-50
2022/04/05 03:46:50;;;;;;;16.77;3.17;;;6.10;99.90;;;;;;4960686;28;20055;-48
2022/04/05 03:49:16;;;;;;;16.88;3.08;;;6.00;99.90;;;;;;4961841;28;20041;-49
2022/04/05 03:51:41;;;;;;;15.02;3.15;;;6.00;99.90;;;;;;4961427;29;20054;-50
2022/04/05 03:54:07;;;;;;;20.50;3.10;;;6.20;99.90;;;;;;4961061;29;20574;-52
2022/04/05 03:56:32;;;;;;;15.63;2.92;;;6.00;99.90;;;;;;4961374;29;20043;-49
2022/04/05 03:58:58;;;;;;;19.38;2.63;;;6.10;99.90;;;;;;4960568;29;20054;-52
2022/04/05 04:01:24;;;;;;;20.05;2.83;;;6.10;99.90;;;;;;4961768;29;20055;-49
2022/04/05 04:03:49;;;;;;;21.60;2.80;;;6.00;99.90;;;;;;4960241;29;20047;-52
2022/04/05 04:06:15;;;;;;;15.43;2.20;;;6.20;99.90;;;;;;4961794;29;20071;-52
2022/04/05 04:08:41;;;;;;;20.02;2.67;;;6.10;99.90;;;;;;4960677;29;20075;-50
2022/04/05 04:11:06;;;;;;;21.65;3.30;;;6.10;99.90;;;;;;4961205;28;20106;-49
2022/04/05 04:13:32;;;;;;;16.30;2.65;;;6.10;99.90;;;;;;4960999;29;20040;-48
2022/04/05 04:15:58;;;;;;;17.55;2.67;;;6.00;99.90;;;;;;4960220;29;20054;-50
2022/04/05 04:18:24;;;;;;;21.25;3.72;;;6.10;99.90;;;;;;4961081;28;20081;-51
2022/04/05 04:20:50;;;;;;;14.85;2.20;;;6.10;99.90;;;;;;4960222;28;20047;-52
2022/04/05 04:23:16;;;;;;;17.45;2.58;;;6.00;99.90;;;;;;4961209;29;20051;-52
2022/04/05 04:25:42;;;;;;;20.67;2.50;;;6.00;99.90;;;;;;4960266;28;20073;-50
2022/04/05 04:28:09;;;;;;;19.10;4.25;;;6.00;99.90;;;;;;4960933;29;20047;-52
2022/04/05 04:30:37;;;;;;;16.35;3.05;;;6.00;99.90;;;;;;4960980;28;20535;-49
2022/04/05 04:33:04;;;;;;;16.48;3.15;;;6.00;99.90;;;;;;4959996;28;20050;-50
2022/04/05 04:35:30;;;;;;;16.25;2.47;;;6.10;99.90;;;;;;4961215;28;20130;-49
2022/04/05 04:37:56;;;;;;;18.30;3.28;;;6.00;99.90;;;;;;4958719;29;20051;-49
2022/04/05 04:40:22;;;;;;;14.57;3.15;;;5.90;99.90;;;;;;4961311;29;20050;-52
2022/04/05 04:42:48;;;;;;;15.45;2.55;;;6.10;99.90;;;;;;4942392;29;20062;-51
2022/04/05 04:45:14;;;;;;;14.80;2.45;;;6.10;99.90;;;;;;4960632;29;20549;-51
2022/04/05 04:47:40;;;;;;;19.73;2.47;;;5.90;99.90;;;;;;4960379;28;20127;-49
2022/04/05 04:50:11;;;;;;;19.70;4.38;;;5.90;99.90;;;;;;4959918;28;20380;-49
2022/04/05 04:52:37;;;;;;;18.70;2.63;;;5.90;99.90;;;;;;4961053;28;20082;-50
2022/04/05 04:55:04;;;;;;;16.13;2.58;;;6.00;99.90;;;;;;4959768;28;20082;-51
2022/04/05 04:57:29;;;;;;;12.18;2.20;;;5.90;99.90;;;;;;4960931;28;20062;-51
2022/04/05 04:59:55;;;;;;;16.05;2.55;;;6.00;99.90;;;;;;4959843;29;20039;-50
2022/04/05 05:02:22;;;;;;;14.18;2.60;;;6.00;99.90;;;;;;4960446;28;20059;-52
2022/04/05 05:04:51;;;;;;;15.43;2.35;;;6.10;99.90;;;;;;4960116;29;20114;-52
2022/04/05 05:07:17;;;;;;;15.32;3.17;;;6.00;99.90;;;;;;4959862;28;20051;-51
2022/04/05 05:09:44;;;;;;;17.77;3.13;;;6.00;99.90;;;;;;4960676;28;20043;-51
2022/04/05 05:12:10;;;;;;;17.75;3.47;;;6.10;99.90;;;;;;4959573;28;20039;-51
2022/04/05 05:14:37;;;;;;;19.42;3.53;;;6.10;99.90;;;;;;4960835;28;20107;-49
2022/04/05 05:17:03;;;;;;;17.98;3.53;;;6.00;99.90;;;;;;4959411;28;20043;-50
2022/04/05 05:19:29;;;;;;;16.95;2.85;;;6.10;99.90;;;;;;4960420;28;20043;-51
2022/04/05 05:21:54;;;;;;;19.00;2.88;;;6.10;99.90;;;;;;4960242;28;20067;-52
2022/04/05 05:24:20;;;;;;;24.60;2.92;;;6.00;99.90;;;;;;4959645;28;20055;-52
2022/04/05 05:26:46;;;;;;;14.75;2.38;;;6.00;99.90;;;;;;4960628;28;20035;-52
2022/04/05 05:29:12;;;;;;;16.98;3.03;;;6.00;99.90;;;;;;4959788;28;20043;-51
2022/04/05 05:31:39;;;;;;;16.00;2.60;;;6.10;99.90;;;;;;4964394;29;20631;-50
2022/04/05 05:34:05;;;;;;;15.45;2.30;;;6.20;99.90;;;;;;4963099;28;20074;-48
2022/04/05 05:36:30;;;;;;;18.73;2.72;;;6.10;99.90;;;;;;4964409;29;20049;-50
2022/04/05 05:38:56;;;;;;;18.95;3.72;;;6.20;99.90;;;;;;4961533;29;20103;-51
2022/04/05 05:41:22;;;;;;;17.17;2.50;;;6.30;99.90;;;;;;4958953;29;20098;-49
2022/04/05 05:43:48;;;;;;;15.32;2.60;;;6.30;99.90;;;;;;4960962;28;20043;-52
2022/04/05 05:46:14;;;;;;;22.52;3.75;;;6.20;99.90;;;;;;4959578;29;20055;-49
2022/04/05 05:48:39;;;;;;;13.23;2.58;;;6.20;99.90;;;;;;4961026;28;20082;-51
2022/04/05 05:51:05;;;;;;;17.50;2.30;;;6.20;99.90;;;;;;4942151;29;20500;-51
2022/04/05 05:53:32;;;;;;;15.23;2.28;;;6.30;99.90;;;;;;4960749;28;20058;-49
2022/04/05 05:55:58;;;;;;;14.55;2.80;;;6.30;99.90;;;;;;4959968;28;20051;-49
2022/04/05 05:58:24;;;;;;;17.25;2.70;;;6.20;99.90;;;;;;4960049;29;20058;-53
2022/04/05 06:00:51;;;;;;;8.77;2.30;;;6.30;99.90;;;;;;4960538;29;20058;-52
2022/04/05 06:03:17;;;;;;;16.48;2.58;;;6.30;99.90;;;;;;4958948;28;20058;-49
2022/04/05 06:05:43;;;;;;;18.20;2.75;;;6.40;99.90;;;;;;4960520;29;20050;-51
2022/04/05 06:08:09;;;;;;;15.75;2.83;;;6.40;99.90;;;;;;4959479;28;20122;-50
2022/04/05 06:10:35;;;;;;;14.73;2.53;;;6.40;99.90;;;;;;4960800;28;20055;-51
2022/04/05 06:13:01;;;;;;;14.77;3.38;;;6.40;99.90;;;;;;4959673;28;20065;-50
2022/04/05 06:15:28;;;;;;;16.02;2.38;;;6.40;99.90;;;;;;4958030;29;20260;-50
2022/04/05 06:17:55;;;;;;;18.00;3.00;;;6.50;99.90;;;;;;4959995;28;20127;-50
2022/04/05 06:20:22;;;;;;;17.75;2.90;;;6.40;99.90;;;;;;4958982;28;20110;-51
2022/04/05 06:23:02;;;;;;;13.98;2.33;;;6.50;99.90;;;;;;4960354;28;20047;-51
2022/04/05 06:25:30;;;;;;;8.63;2.25;;;6.60;99.90;;;;;;4939886;29;20104;-49
2022/04/05 06:27:57;;;;;;;15.80;2.40;;;6.60;99.90;;;;;;4940563;29;20052;-51
2022/04/05 06:30:22;;;;;;;13.23;2.72;;;6.70;99.90;;;;;;4938965;29;20051;-50
2022/04/05 06:32:49;;;;;;;13.75;3.55;;;6.60;99.90;;;;;;4940268;29;20083;-52
2022/04/05 06:35:15;;;;;;;16.70;2.97;;;6.60;99.90;;;;;;4940966;29;20135;-49
2022/04/05 06:37:44;;;;;;;9.40;2.17;;;6.70;99.90;;;;;;4939771;29;20043;-48
2022/04/05 06:40:11;;;;;;;9.65;2.03;;;6.80;99.90;;;;;;4940561;29;20080;-48
2022/04/05 06:42:42;;;;;;;12.10;2.30;;;6.70;99.90;;;;;;4939343;29;20102;-49
2022/04/05 06:45:14;;;;;;;11.35;2.25;;;6.80;99.90;;;;;;4940252;29;20596;-52
2022/04/05 06:47:41;;;;;;;16.80;2.88;;;6.80;99.90;;;;;;4940030;29;20058;-49
2022/04/05 06:50:08;;;;;;;16.33;2.75;;;6.90;99.90;;;;;;4939561;29;20040;-48
2022/04/05 06:52:38;;;;;;;15.32;3.13;;;7.00;99.90;;;;;;4940217;29;20159;-52
2022/04/05 06:55:08;;;;;;;16.00;3.22;;;6.90;99.90;;;;;;4939215;29;20201;-50
2022/04/05 06:57:35;;;;;;;12.30;2.78;;;7.00;99.90;;;;;;4940631;29;20100;-53
2022/04/05 07:00:00;;;;;;;14.35;2.38;;;7.00;99.90;;;;;;4939637;29;20048;-49
2022/04/05 07:02:26;;;;;;;14.80;3.05;;;7.00;99.90;;;;;;4939386;29;20096;-49
2022/04/05 07:04:52;;;;;;;11.98;3.03;;;7.10;99.90;;;;;;4951800;29;20051;-51
2022/04/05 07:07:17;;;;;;;12.65;2.30;;;7.00;99.90;;;;;;4958190;28;20137;-48
2022/04/05 07:09:44;;;;;;;10.40;2.55;;;7.10;99.90;;;;;;4959484;28;20049;-50
2022/04/05 07:12:10;;;;;;;15.43;2.70;;;7.10;99.90;;;;;;4958388;28;20067;-51
2022/04/05 07:14:36;;;;;;;8.52;2.13;;;7.20;99.90;;;;;;4957604;29;20054;-51
2022/04/05 07:17:02;;;;;;;12.65;2.42;;;7.20;99.90;;;;;;4958196;28;20134;-52
2022/04/05 07:19:28;;;;;;;10.98;2.38;;;7.10;99.90;;;;;;4959267;28;20083;-50
2022/04/05 07:21:53;;;;;;;14.43;2.25;;;7.10;99.90;;;;;;4958611;29;20046;-49
2022/04/05 07:24:19;;;;;;;8.73;2.33;;;7.00;99.90;;;;;;4958240;29;20137;-50
2022/04/05 07:26:45;;;;;;;12.88;3.88;;;7.10;99.90;;;;;;4958677;28;20125;-50
2022/04/05 07:29:11;;;;;;;11.05;2.42;;;7.10;99.90;;;;;;4958082;28;20353;-52
2022/04/05 07:31:37;;;;;;;8.52;1.90;;;7.10;99.90;;;;;;4959154;29;20080;-52
2022/04/05 07:34:03;;;;;;;11.57;2.05;;;7.10;99.90;;;;;;4958066;28;20055;-53
2022/04/05 07:36:33;;;;;;;12.20;2.20;;;7.10;99.90;;;;;;4958753;29;20056;-51
2022/04/05 07:38:59;;;;;;;10.57;2.58;;;7.20;99.90;;;;;;4956719;29;20460;-52
2022/04/05 07:41:25;;;;;;;10.70;2.00;;;7.10;99.90;;;;;;4957888;28;20051;-49
2022/04/05 07:43:51;;;;;;;14.00;2.75;;;7.20;99.90;;;;;;4957036;29;20799;-49
2022/04/05 07:46:17;;;;;;;15.35;2.50;;;7.20;99.90;;;;;;4957309;29;20644;-51
2022/04/05 07:48:42;;;;;;;8.70;2.00;;;7.30;99.90;;;;;;4958669;29;20175;-49
2022/04/05 07:51:08;;;;;;;20.83;2.83;;;7.30;99.90;;;;;;4956929;28;20260;-50
2022/04/05 07:53:34;;;;;;;11.63;2.30;;;7.40;99.90;;;;;;4958061;28;20380;-52
2022/04/05 07:56:00;;;;;;;10.90;2.13;;;7.30;99.90;;;;;;4958041;29;20695;-51
2022/04/05 07:58:26;;;;;;;13.77;2.45;;;7.40;99.90;;;;;;4957653;29;20046;-51
2022/04/05 08:00:52;;;;;;;9.32;2.45;;;7.30;99.90;;;;;;4958206;29;20062;-49
2022/04/05 08:03:18;;;;;;;16.17;2.38;;;7.40;99.90;;;;;;4956567;28;20552;-49
2022/04/05 08:05:44;;;;;;;11.50;2.22;;;7.30;99.90;;;;;;4958440;28;20054;-50
2022/04/05 08:08:10;;;;;;;14.38;2.05;;;7.40;99.90;;;;;;4957221;28;20054;-49
2022/04/05 08:10:36;;;;;;;12.52;2.78;;;7.40;99.90;;;;;;4958423;28;20071;-50
2022/04/05 08:13:02;;;;;;;13.20;2.80;;;7.50;99.90;;;;;;4957753;28;20062;-52
2022/04/05 08:15:28;;;;;;;9.95;2.35;;;7.70;99.90;;;;;;4957199;28;20075;-52
2022/04/05 08:17:54;;;;;;;12.55;2.03;;;7.70;99.90;;;;;;4957782;28;20051;-50
2022/04/05 08:20:20;;;;;;;12.02;2.78;;;7.60;99.90;;;;;;4956924;29;20090;-49
2022/04/05 08:22:47;;;;;;;12.77;3.13;;;7.70;99.90;;;;;;4958232;28;20089;-53
2022/04/05 08:25:15;;;;;;;13.20;3.38;;;7.70;99.90;;;;;;4955330;28;20486;-51
2022/04/05 08:27:43;;;;;;;12.82;2.30;;;7.70;99.90;;;;;;4955495;29;20098;-48
2022/04/05 08:30:10;;;;;;;9.65;2.30;;;7.70;99.90;;;;;;4956631;28;20110;-50
2022/04/05 08:32:37;;;;;;;19.50;4.57;;;7.70;99.90;;;;;;4957150;28;20554;-52
2022/04/05 08:35:05;;;;;;;14.77;2.80;;;7.70;99.90;;;;;;4956716;29;20055;-52
2022/04/05 08:37:31;;;;;;;12.80;3.90;;;7.70;99.90;;;;;;4956881;29;20106;-49
2022/04/05 08:39:56;;;;;;;15.77;2.90;;;7.60;99.90;;;;;;4957877;28;20071;-49
2022/04/05 08:42:26;;;;;;;10.07;2.45;;;7.70;99.90;;;;;;4956460;28;20086;-52
2022/04/05 08:44:53;;;;;;;12.02;2.78;;;7.70;99.90;;;;;;4957709;28;20175;-50
2022/04/05 08:47:21;;;;;;;10.38;2.45;;;7.80;99.90;;;;;;4956545;29;20055;-52
2022/04/05 08:49:49;;;;;;;9.60;2.97;;;7.80;99.90;;;;;;4956842;29;20504;-50
2022/04/05 08:52:15;;;;;;;9.82;2.65;;;7.90;99.90;;;;;;4957277;28;20055;-51
2022/04/05 08:54:40;;;;;;;11.93;2.40;;;8.00;99.90;;;;;;4954990;29;20159;-50
2022/04/05 08:57:06;;;;;;;7.97;2.35;;;8.00;99.90;;;;;;4957823;29;20071;-50
2022/04/05 08:59:32;;;;;;;10.43;2.22;;;8.10;99.90;;;;;;4956429;29;20043;-49
2022/04/05 09:01:58;;;;;;;9.80;2.35;;;8.00;99.90;;;;;;4957683;29;20050;-50
2022/04/05 09:04:24;;;;;;;8.35;2.30;;;8.20;99.90;;;;;;4955654;28;20049;-47
2022/04/05 09:06:50;;;;;;;10.30;2.15;;;8.20;99.90;;;;;;4956404;29;20503;-49
2022/04/05 09:09:17;;;;;;;9.15;2.30;;;8.30;99.90;;;;;;4957316;28;20074;-46
2022/04/05 09:11:47;;;;;;;11.20;2.38;;;8.30;99.90;;;;;;4956311;28;20043;-48
2022/04/05 09:14:14;;;;;;;8.55;2.40;;;8.40;99.90;;;;;;4957479;28;20043;-49
2022/04/05 09:16:40;;;;;;;9.23;2.33;;;8.40;99.90;;;;;;4955863;28;20063;-50
2022/04/05 09:19:15;;;;;;;10.10;2.72;;;8.20;99.90;;;;;;4957727;28;20039;-51
2022/04/05 09:21:57;;;;;;;9.27;3.00;;;8.10;99.90;;;;;;4956934;29;20083;-51
2022/04/05 09:24:52;;;;;;;;;;;8.20;99.90;;;;;;4956967;28;20055;-51
2022/04/05 09:27:20;;;;;;;20.55;4.40;;;8.30;99.90;;;;;;4923475;29;19954;-50
2022/04/05 09:29:50;;;;;;;11.35;2.50;;;8.30;99.90;;;;;;4956166;29;20043;-50
2022/04/05 09:32:34;;;;;;;10.70;2.90;;;8.20;99.90;;;;;;4957110;28;20059;-51
2022/04/05 09:34:59;;;;;;;8.52;2.05;;;8.10;99.90;;;;;;4957167;28;20123;-49
2022/04/05 09:37:28;;;;;;;12.07;2.75;;;8.00;99.90;;;;;;4956200;28;20086;-49
2022/04/05 09:39:57;;;;;;;10.23;3.50;;;7.90;99.90;;;;;;4957232;28;20048;-53
2022/04/05 09:42:22;;;;;;;15.43;3.75;;;7.90;99.90;;;;;;4956036;28;20043;-52
2022/04/05 09:44:48;;;;;;;10.77;3.33;;;8.00;99.90;;;;;;4957201;29;20058;-51
2022/04/05 09:47:21;;;;;;;11.50;3.65;;;7.90;99.90;;;;;;4956231;29;20119;-53
2022/04/05 09:49:49;;;;;;;12.38;2.83;;;7.80;99.90;;;;;;4956551;28;20051;-50
2022/04/05 09:52:41;;;;;;;11.27;3.22;;;7.90;99.90;;;;;;4956783;28;20055;-53
2022/04/05 09:55:15;;;;;;;15.82;3.10;;;7.90;99.90;;;;;;4950438;29;20067;-53
2022/04/05 09:57:42;;;;;;;10.82;2.90;;;7.90;99.90;;;;;;4957294;28;20082;-54
2022/04/05 10:00:16;;;;;;;9.68;2.83;;;7.90;99.90;;;;;;4956250;28;20047;-54
2022/04/05 10:03:02;;;;;;;11.93;3.25;;;7.90;99.90;;;;;;4955931;28;20058;-52
2022/04/05 10:05:32;;;;;;;10.35;3.10;;;7.90;99.90;;;;;;4956975;28;20051;-52
2022/04/05 10:07:58;;;;;;;9.07;2.50;;;8.00;99.90;;;;;;4955845;28;20055;-53
2022/04/05 10:10:24;;;;;;;8.40;2.72;;;7.80;99.90;;;;;;4957103;28;20075;-53
2022/04/05 10:12:50;;;;;;;12.02;2.75;;;8.00;99.90;;;;;;4955856;29;20055;-53
2022/04/05 10:15:16;;;;;;;7.43;2.35;;;7.90;99.90;;;;;;4956548;28;20431;-50
2022/04/05 10:17:45;;;;;;;6.97;2.20;;;7.80;99.90;;;;;;4959921;29;20047;-54
2022/04/05 10:20:12;;;;;;;10.35;2.40;;;8.00;99.90;;;;;;4959157;28;20066;-54
2022/04/05 10:22:42;;;;;;;6.60;1.90;;;8.10;99.90;;;;;;4960249;28;20058;-54
2022/04/05 10:25:08;;;;;;;6.82;1.70;;;8.00;99.90;;;;;;4958791;28;20044;-53
2022/04/05 10:27:34;;;;;;;8.07;1.80;;;8.20;99.90;;;;;;4959773;28;20055;-50
2022/04/05 10:30:10;;;;;;;5.72;1.52;;;8.30;99.90;;;;;;4959478;28;20078;-52
2022/04/05 10:32:58;;;;;;;5.15;1.50;;;8.30;99.90;;;;;;4959150;28;20055;-52
2022/04/05 10:35:25;;;;;;;8.23;2.20;;;8.10;99.90;;;;;;4960195;28;20058;-52
2022/04/05 10:37:52;;;;;;;6.40;1.75;;;8.30;99.90;;;;;;4958699;28;20044;-51
2022/04/05 10:40:20;;;;;;;5.88;1.58;;;8.10;99.90;;;;;;4959814;28;20138;-55
2022/04/05 10:42:49;;;;;;;5.68;2.10;;;8.20;99.90;;;;;;4958580;28;20062;-53
2022/04/05 10:45:20;;;;;;;5.97;1.90;;;8.30;99.90;;;;;;4959192;28;20055;-50
2022/04/05 10:47:58;;;;;;;4.22;1.73;;;8.40;99.90;;;;;;4959217;28;20051;-51
2022/04/05 10:50:24;;;;;;;4.00;1.48;;;8.60;99.90;;;;;;4956712;29;20059;-52
2022/04/05 10:53:19;;;;;;;4.70;1.40;;;8.40;99.90;;;;;;4959510;29;20066;-52
2022/04/05 10:56:03;;;;;;;4.65;1.67;;;8.50;99.90;;;;;;4958555;28;20050;-48
2022/04/05 10:58:38;;;;;;;4.93;1.92;;;8.60;99.90;;;;;;4958653;29;20058;-52
2022/04/05 11:01:23;;;;;;;6.82;2.35;;;8.40;99.90;;;;;;4959556;28;20063;-51
2022/04/05 11:04:15;;;;;;;7.75;3.17;;;8.40;99.90;;;;;;4958085;28;20127;-49
2022/04/05 11:06:59;;;;;;;6.73;2.80;;;8.60;99.90;;;;;;4958996;28;20198;-52
2022/04/05 11:09:30;;;;;;;5.72;2.88;;;8.50;99.90;;;;;;4959415;28;20295;-50
2022/04/05 11:11:57;;;;;;;7.00;2.78;;;8.50;99.90;;;;;;4958058;28;20109;-52
2022/04/05 11:14:47;;;;;;;6.85;2.80;;;8.60;99.90;;;;;;4959338;28;20115;-52
2022/04/05 11:17:14;;;;;;;6.88;3.00;;;8.70;99.90;;;;;;4958151;28;20055;-52
2022/04/05 11:19:48;;;;;;;5.97;2.60;;;8.80;99.90;;;;;;4958702;28;20078;-48
2022/04/05 11:22:20;;;;;;;7.25;3.10;;;8.70;99.90;;;;;;4958013;29;20361;-49
2022/04/05 11:25:05;;;;;;;6.05;2.38;;;8.70;99.90;;;;;;4958117;29;20054;-49
2022/04/05 11:27:32;;;;;;;5.50;2.30;;;8.70;99.90;;;;;;4958085;28;20139;-48
2022/04/05 11:30:23;;;;;;;5.10;2.08;;;8.90;99.90;;;;;;4958275;29;20058;-52
2022/04/05 11:33:09;;;;;;;5.03;1.90;;;8.90;99.90;;;;;;4958130;29;20051;-52
2022/04/05 11:35:38;;;;;;;4.78;1.73;;;9.00;99.90;;;;;;4957604;29;20070;-49
2022/04/05 11:38:05;;;;;;;6.20;1.80;;;8.90;99.90;;;;;;4956283;29;20061;-50
2022/04/05 11:40:31;;;;;;;4.32;1.73;;;8.90;99.90;;;;;;4958457;28;20039;-49
2022/04/05 11:43:02;;;;;;;5.22;2.00;;;8.90;99.90;;;;;;4957466;28;20043;-49
2022/04/05 11:45:29;;;;;;;4.68;1.80;;;8.90;99.90;;;;;;4956043;28;20086;-52
2022/04/05 11:47:56;;;;;;;4.70;1.85;;;8.90;99.90;;;;;;4949847;29;20081;-49
2022/04/05 11:50:22;;;;;;;5.53;2.03;;;8.90;99.90;;;;;;4952283;28;20070;-48
2022/04/05 11:52:49;;;;;;;4.60;1.75;;;9.00;99.90;;;;;;4952318;29;20039;-48
2022/04/05 11:58:03;;;;;;;4.78;1.92;;;9.00;99.90;;;;;;4943771;29;20106;-49
2022/04/05 12:00:29;;;;;;;4.82;1.60;;;9.10;99.90;;;;;;4945650;29;20086;-51
2022/04/05 12:03:06;;;;;;;5.00;2.15;;;9.30;99.90;;;;;;4953249;29;20094;-48
2022/04/05 12:05:46;;;;;;;5.22;2.10;;;9.50;99.90;;;;;;4945531;29;20103;-49
2022/04/05 12:08:15;;;;;;;4.47;1.80;;;9.80;99.90;;;;;;4945480;29;20048;-48
2022/04/05 12:10:43;;;;;;;4.78;2.05;;;9.80;99.90;;;;;;4947201;29;20046;-52
2022/04/05 12:13:09;;;;;;;4.75;2.22;;;10.00;99.90;;;;;;4948117;29;20047;-48
2022/04/05 12:15:36;;;;;;;4.90;2.08;;;10.20;99.90;;;;;;4950988;29;20596;-52
2022/04/05 12:18:23;;;;;;;4.40;1.90;;;10.20;99.90;;;;;;4942190;29;20035;-49
2022/04/05 12:21:00;;;;;;;4.90;2.03;;;10.00;99.90;;;;;;4943549;29;20102;-51
2022/04/05 12:23:34;;;;;;;7.22;1.90;;;10.10;99.90;;;;;;4950448;28;20052;-50
2022/04/05 12:26:15;;;;;;;5.32;1.90;;;10.30;99.90;;;;;;4956258;29;20537;-48
2022/04/05 12:28:43;;;;;;;4.57;2.00;;;10.20;99.90;;;;;;4955557;28;20047;-48
2022/04/05 12:31:20;;;;;;;5.10;2.03;;;10.10;99.90;;;;;;4958210;29;20070;-52
2022/04/05 12:33:57;;;;;;;4.90;2.10;;;10.20;99.90;;;;;;4956604;29;20062;-49
2022/04/05 12:36:25;;;;;;;5.53;2.35;;;10.20;99.90;;;;;;4957300;29;20055;-50
2022/04/05 12:38:51;;;;;;;5.93;2.20;;;10.10;99.90;;;;;;4954998;28;20065;-49
2022/04/05 12:41:18;;;;;;;5.35;2.35;;;10.00;99.90;;;;;;4956533;29;20047;-49
2022/04/05 12:43:46;;;;;;;5.47;2.47;;;9.90;99.90;;;;;;4957793;29;20059;-52
2022/04/05 12:46:13;;;;;;;7.32;2.40;;;10.00;99.90;;;;;;4943063;29;20058;-52
2022/04/05 12:48:41;;;;;;;6.28;2.88;;;10.00;99.90;;;;;;4948840;29;20051;-49
2022/04/05 12:51:08;;;;;;;5.38;2.80;;;10.00;99.90;;;;;;4943732;29;20044;-52
2022/04/05 12:53:38;;;;;;;7.47;2.60;;;10.00;99.90;;;;;;4941654;28;20048;-51
2022/04/05 12:56:14;;;;;;;7.57;3.50;;;9.90;99.90;;;;;;4941866;29;20051;-52
2022/04/05 12:58:46;;;;;;;6.40;2.97;;;9.70;99.90;;;;;;4936168;29;20158;-56